Aérodrome :
LOGIN :

S'inscrire | Disclaimer

   EN    FR    IT 

 










Légende :    VFR   VFR Marginal   IFR   IFR Intensif   IFR Très Intensif
Visi : 
Plafond : 
>= 8 km
>= 3000ft
5 à 8 km
1000 à 3000 ft
1500m à 5 km
500 à 1000 ft
800 à 1500m
200 à 500 ft
< 800m
< 200 ft
Symboles :   Orages  Brouillard  Fortes neiges  Fortes précipitations  Vent > 20 kt
SIGMETs :   Divers  Orages  Givrage  Turbulence  Onde Orograph.  Cendres Volcan.






- Altitude de l'aérodrome : 286 ft
- Code IATA : FFD


EGVA - RAF Fairford

DERNIER METAR :
  • 261446Z AUTO 21014G21KT 9999 -RA SCT011 SCT019 BKN046 09/09 A2967 RMK AO2 SLP052 $

METARs EXPIRÉS :
  • 261411Z AUTO 20016G20KT 9999 -RA BKN012 BKN022 OVC031 09/09 A2968 RMK AO2 CIG 012V026 SLP055 $
  • 261356Z AUTO 19012KT 9999 -RA SCT011 BKN022 BKN030 OVC034 09/09 A2969 RMK AO2 CIG 020 RWY09 SLP059 P0006 T00910089 $
  • 261341Z AUTO 19013KT 9999 -RA SCT010 SCT014 BKN027 BKN032 OVC042 09/09 A2969 RMK AO2 CIG 012V030 CIG 019 RWY09 SLP059 $
  • 261256Z AUTO 20013KT 9999 -RA OVC012 09/09 A2971 RMK AO2 DZE00RAB00 SLP066 P0001 T00900085 $
  • 261211Z AUTO 19015G21KT 9999 -RA BKN013 OVC022 09/08 A2973 RMK AO2 DZE00RAB00 SLP072 $

Prévision TAF périmée.



MET'MAP, la Météo Aéronautique d'un coup d'oeil ! - Copyright ORBIFLY Décembre 2007 - Disclaimer

ORBIFLY MET'MAP TEAM :

Programmation & Développement : Alexandra Zaïnal
Sur une idée originale de : Baudouin d'Aumeries
Assistance à la programmation : Marc-Olivier Méhu
Soutien technique & logistique : Manuel Goepfert

Contact : metmap@orbifly.com




SOURCES & CREDITS :

   NOAA